sensor_id;sensor_type;location;lat;lon;timestamp;pressure;altitude;pressure_sealevel;temperature;humidity
74327;BME280;62745;51.060;13.786;2022-11-20T00:00:20;100032.78;;;-4.88;87.46
74327;BME280;62745;51.060;13.786;2022-11-20T00:02:45;100030.06;;;-4.99;89.14
74327;BME280;62745;51.060;13.786;2022-11-20T00:05:10;100035.09;;;-5.10;89.83
74327;BME280;62745;51.060;13.786;2022-11-20T00:07:36;100035.75;;;-5.07;89.98
74327;BME280;62745;51.060;13.786;2022-11-20T00:10:01;100033.63;;;-5.15;89.91
74327;BME280;62745;51.060;13.786;2022-11-20T00:12:26;100028.31;;;-5.13;89.85
74327;BME280;62745;51.060;13.786;2022-11-20T00:14:52;100027.97;;;-4.67;91.05
74327;BME280;62745;51.060;13.786;2022-11-20T00:17:17;100020.97;;;-4.67;89.31
74327;BME280;62745;51.060;13.786;2022-11-20T00:19:42;100014.63;;;-4.37;89.54
74327;BME280;62745;51.060;13.786;2022-11-20T00:22:07;100022.38;;;-4.48;87.97
74327;BME280;62745;51.060;13.786;2022-11-20T00:24:33;100021.31;;;-4.46;87.04
74327;BME280;62745;51.060;13.786;2022-11-20T00:26:58;100022.69;;;-4.53;88.60
74327;BME280;62745;51.060;13.786;2022-11-20T00:29:23;100018.47;;;-4.56;87.57
74327;BME280;62745;51.060;13.786;2022-11-20T00:31:48;100019.13;;;-4.27;87.57
74327;BME280;62745;51.060;13.786;2022-11-20T00:34:14;100021.88;;;-4.03;85.90
74327;BME280;62745;51.060;13.786;2022-11-20T00:36:39;100027.50;;;-3.83;85.83
74327;BME280;62745;51.060;13.786;2022-11-20T00:39:04;100029.56;;;-4.27;86.22
74327;BME280;62745;51.060;13.786;2022-11-20T00:41:30;100032.56;;;-4.45;87.73
74327;BME280;62745;51.060;13.786;2022-11-20T00:43:56;100030.09;;;-4.34;87.00
74327;BME280;62745;51.060;13.786;2022-11-20T00:46:23;100041.63;;;-4.64;87.00
74327;BME280;62745;51.060;13.786;2022-11-20T00:48:49;100043.78;;;-4.70;87.68
74327;BME280;62745;51.060;13.786;2022-11-20T00:51:17;100041.00;;;-4.67;88.06
74327;BME280;62745;51.060;13.786;2022-11-20T00:53:44;100049.66;;;-4.94;88.23
74327;BME280;62745;51.060;13.786;2022-11-20T00:56:12;100047.00;;;-5.06;88.65
74327;BME280;62745;51.060;13.786;2022-11-20T00:58:39;100049.25;;;-5.15;89.50
74327;BME280;62745;51.060;13.786;2022-11-20T01:01:10;100048.63;;;-4.39;89.06
74327;BME280;62745;51.060;13.786;2022-11-20T01:03:38;100044.91;;;-4.35;88.18
74327;BME280;62745;51.060;13.786;2022-11-20T01:06:07;100041.56;;;-4.76;88.04
74327;BME280;62745;51.060;13.786;2022-11-20T01:08:55;100045.53;;;-4.83;89.62
74327;BME280;62745;51.060;13.786;2022-11-20T01:11:29;100045.22;;;-5.06;88.94
74327;BME280;62745;51.060;13.786;2022-11-20T01:13:56;100051.50;;;-5.23;89.40
74327;BME280;62745;51.060;13.786;2022-11-20T01:16:25;100041.50;;;-4.62;88.03
74327;BME280;62745;51.060;13.786;2022-11-20T01:18:53;100042.41;;;-4.76;87.96
74327;BME280;62745;51.060;13.786;2022-11-20T01:21:23;100046.31;;;-4.96;89.01
74327;BME280;62745;51.060;13.786;2022-11-20T01:23:50;100039.13;;;-4.65;88.68
74327;BME280;62745;51.060;13.786;2022-11-20T01:26:24;100035.19;;;-4.20;86.62
74327;BME280;62745;51.060;13.786;2022-11-20T01:28:50;100039.22;;;-4.54;86.37
74327;BME280;62745;51.060;13.786;2022-11-20T01:31:20;100036.03;;;-4.32;86.07
74327;BME280;62745;51.060;13.786;2022-11-20T01:33:47;100036.84;;;-4.44;86.35
74327;BME280;62745;51.060;13.786;2022-11-20T01:36:14;100029.28;;;-4.74;87.23
74327;BME280;62745;51.060;13.786;2022-11-20T01:38:40;100037.66;;;-4.96;87.74
74327;BME280;62745;51.060;13.786;2022-11-20T01:41:07;100028.44;;;-5.15;88.15
74327;BME280;62745;51.060;13.786;2022-11-20T01:43:33;100026.25;;;-5.35;88.15
74327;BME280;62745;51.060;13.786;2022-11-20T01:46:04;100025.06;;;-5.43;89.10
74327;BME280;62745;51.060;13.786;2022-11-20T01:48:54;100028.06;;;-4.69;88.05
74327;BME280;62745;51.060;13.786;2022-11-20T01:51:39;100025.50;;;-3.92;85.49
74327;BME280;62745;51.060;13.786;2022-11-20T01:54:09;100020.72;;;-3.99;82.61
74327;BME280;62745;51.060;13.786;2022-11-20T01:56:38;100027.13;;;-4.68;84.04
74327;BME280;62745;51.060;13.786;2022-11-20T01:59:07;100029.16;;;-4.86;87.44
74327;BME280;62745;51.060;13.786;2022-11-20T02:01:33;100023.91;;;-4.46;85.20
74327;BME280;62745;51.060;13.786;2022-11-20T02:03:59;99994.81;;;-4.40;84.34
74327;BME280;62745;51.060;13.786;2022-11-20T02:06:29;100022.03;;;-4.44;84.65
74327;BME280;62745;51.060;13.786;2022-11-20T02:08:56;100018.44;;;-4.81;85.02
74327;BME280;62745;51.060;13.786;2022-11-20T02:11:21;100022.25;;;-4.99;85.90
74327;BME280;62745;51.060;13.786;2022-11-20T02:13:47;100018.22;;;-5.18;87.36
74327;BME280;62745;51.060;13.786;2022-11-20T02:16:24;100014.56;;;-5.15;87.16
74327;BME280;62745;51.060;13.786;2022-11-20T02:18:51;100019.63;;;-5.26;88.06
74327;BME280;62745;51.060;13.786;2022-11-20T02:24:17;100007.00;;;-5.32;87.35
74327;BME280;62745;51.060;13.786;2022-11-20T02:26:48;100000.75;;;-5.30;88.36
74327;BME280;62745;51.060;13.786;2022-11-20T02:29:17;99997.16;;;-5.41;87.46
74327;BME280;62745;51.060;13.786;2022-11-20T02:31:44;100003.59;;;-5.47;89.19
74327;BME280;62745;51.060;13.786;2022-11-20T02:34:10;99997.25;;;-5.43;89.18
74327;BME280;62745;51.060;13.786;2022-11-20T02:36:36;100007.59;;;-5.56;88.94
74327;BME280;62745;51.060;13.786;2022-11-20T02:39:04;100008.72;;;-5.60;89.44
74327;BME280;62745;51.060;13.786;2022-11-20T02:41:35;100009.69;;;-4.80;88.36
74327;BME280;62745;51.060;13.786;2022-11-20T02:44:01;100000.19;;;-4.81;87.17
74327;BME280;62745;51.060;13.786;2022-11-20T02:46:27;100005.44;;;-4.68;86.45
74327;BME280;62745;51.060;13.786;2022-11-20T02:48:52;100000.13;;;-4.54;86.09
74327;BME280;62745;51.060;13.786;2022-11-20T02:51:30;99995.31;;;-4.86;86.20
74327;BME280;62745;51.060;13.786;2022-11-20T02:53:56;99999.97;;;-4.91;87.22
74327;BME280;62745;51.060;13.786;2022-11-20T02:56:21;100002.72;;;-5.06;87.78
74327;BME280;62745;51.060;13.786;2022-11-20T02:58:46;100000.41;;;-5.38;87.99
74327;BME280;62745;51.060;13.786;2022-11-20T03:01:12;99999.34;;;-5.62;89.30
74327;BME280;62745;51.060;13.786;2022-11-20T03:03:38;99990.00;;;-5.79;89.49
74327;BME280;62745;51.060;13.786;2022-11-20T03:06:03;100001.03;;;-5.76;90.20
74327;BME280;62745;51.060;13.786;2022-11-20T03:08:28;99999.47;;;-5.78;89.91
74327;BME280;62745;51.060;13.786;2022-11-20T03:10:54;99992.97;;;-5.30;90.31
74327;BME280;62745;51.060;13.786;2022-11-20T03:13:19;100001.41;;;-5.53;89.04
74327;BME280;62745;51.060;13.786;2022-11-20T03:15:44;99993.22;;;-5.61;89.21
74327;BME280;62745;51.060;13.786;2022-11-20T03:18:09;99986.47;;;-5.10;88.37
74327;BME280;62745;51.060;13.786;2022-11-20T03:20:35;99984.81;;;-4.59;86.87
74327;BME280;62745;51.060;13.786;2022-11-20T03:23:00;99979.94;;;-4.50;85.58
74327;BME280;62745;51.060;13.786;2022-11-20T03:25:26;99984.91;;;-4.09;84.12
74327;BME280;62745;51.060;13.786;2022-11-20T03:27:51;99979.59;;;-4.08;83.80
74327;BME280;62745;51.060;13.786;2022-11-20T03:30:17;99977.63;;;-4.42;83.34
74327;BME280;62745;51.060;13.786;2022-11-20T03:32:43;99972.50;;;-4.69;83.57
74327;BME280;62745;51.060;13.786;2022-11-20T03:35:09;99974.13;;;-4.94;86.01
74327;BME280;62745;51.060;13.786;2022-11-20T03:37:34;99970.59;;;-4.80;83.56
74327;BME280;62745;51.060;13.786;2022-11-20T03:39:59;99964.75;;;-4.71;84.00
74327;BME280;62745;51.060;13.786;2022-11-20T03:42:25;99973.03;;;-4.26;82.62
74327;BME280;62745;51.060;13.786;2022-11-20T03:45:09;99974.19;;;-4.17;82.98
74327;BME280;62745;51.060;13.786;2022-11-20T03:47:34;99976.19;;;-4.34;81.36
74327;BME280;62745;51.060;13.786;2022-11-20T03:53:13;99989.69;;;-4.79;84.07
74327;BME280;62745;51.060;13.786;2022-11-20T03:58:45;99990.00;;;-5.11;84.72
74327;BME280;62745;51.060;13.786;2022-11-20T04:01:14;99989.44;;;-4.89;85.17
74327;BME280;62745;51.060;13.786;2022-11-20T04:03:41;99986.44;;;-4.70;83.47
74327;BME280;62745;51.060;13.786;2022-11-20T04:06:09;99969.63;;;-4.92;84.26
74327;BME280;62745;51.060;13.786;2022-11-20T04:08:35;99974.31;;;-5.36;85.05
74327;BME280;62745;51.060;13.786;2022-11-20T04:11:14;99978.56;;;-4.43;84.72
74327;BME280;62745;51.060;13.786;2022-11-20T04:13:58;99973.22;;;-4.55;82.43
74327;BME280;62745;51.060;13.786;2022-11-20T04:16:25;99966.34;;;-4.56;83.01
74327;BME280;62745;51.060;13.786;2022-11-20T04:18:55;99968.88;;;-4.16;82.78
74327;BME280;62745;51.060;13.786;2022-11-20T04:21:21;99965.09;;;-4.37;83.48
74327;BME280;62745;51.060;13.786;2022-11-20T04:23:47;99961.03;;;-4.79;82.96
74327;BME280;62745;51.060;13.786;2022-11-20T04:26:12;99963.09;;;-4.72;83.50
74327;BME280;62745;51.060;13.786;2022-11-20T04:28:38;99960.59;;;-4.86;83.84
74327;BME280;62745;51.060;13.786;2022-11-20T04:31:13;99960.41;;;-5.10;84.21
74327;BME280;62745;51.060;13.786;2022-11-20T04:33:39;99958.28;;;-4.91;84.64
74327;BME280;62745;51.060;13.786;2022-11-20T04:36:11;99949.47;;;-5.15;84.51
74327;BME280;62745;51.060;13.786;2022-11-20T04:38:37;99952.53;;;-5.35;85.81
74327;BME280;62745;51.060;13.786;2022-11-20T04:41:07;99946.00;;;-5.28;85.93
74327;BME280;62745;51.060;13.786;2022-11-20T04:43:33;99945.59;;;-5.22;84.59
74327;BME280;62745;51.060;13.786;2022-11-20T04:45:59;99941.09;;;-5.60;85.98
74327;BME280;62745;51.060;13.786;2022-11-20T04:48:28;99946.22;;;-5.72;86.98
74327;BME280;62745;51.060;13.786;2022-11-20T04:50:54;99947.00;;;-5.85;87.28
74327;BME280;62745;51.060;13.786;2022-11-20T04:53:20;99943.56;;;-5.85;88.92
74327;BME280;62745;51.060;13.786;2022-11-20T04:55:46;99948.78;;;-5.58;87.84
74327;BME280;62745;51.060;13.786;2022-11-20T04:58:12;99950.16;;;-5.26;87.04
74327;BME280;62745;51.060;13.786;2022-11-20T05:00:37;99951.50;;;-5.33;85.80
74327;BME280;62745;51.060;13.786;2022-11-20T05:03:03;99948.78;;;-5.58;86.08
74327;BME280;62745;51.060;13.786;2022-11-20T05:05:28;99940.53;;;-5.38;86.29
74327;BME280;62745;51.060;13.786;2022-11-20T05:07:56;99952.28;;;-5.18;86.68
74327;BME280;62745;51.060;13.786;2022-11-20T05:10:22;99964.91;;;-5.39;86.21
74327;BME280;62745;51.060;13.786;2022-11-20T05:12:47;99965.56;;;-5.35;87.08
74327;BME280;62745;51.060;13.786;2022-11-20T05:15:13;99960.22;;;-5.61;87.17
74327;BME280;62745;51.060;13.786;2022-11-20T05:17:38;99958.56;;;-5.62;87.10
74327;BME280;62745;51.060;13.786;2022-11-20T05:20:03;99959.53;;;-5.77;86.87
74327;BME280;62745;51.060;13.786;2022-11-20T05:22:29;99951.31;;;-5.98;87.75
74327;BME280;62745;51.060;13.786;2022-11-20T05:24:54;99946.22;;;-6.14;88.56
74327;BME280;62745;51.060;13.786;2022-11-20T05:27:20;99950.97;;;-6.20;89.10
74327;BME280;62745;51.060;13.786;2022-11-20T05:29:45;99958.19;;;-6.25;90.04
74327;BME280;62745;51.060;13.786;2022-11-20T05:32:10;99955.22;;;-6.05;91.05
74327;BME280;62745;51.060;13.786;2022-11-20T05:34:36;99943.25;;;-5.66;88.36
74327;BME280;62745;51.060;13.786;2022-11-20T05:37:02;99944.91;;;-5.65;87.13
74327;BME280;62745;51.060;13.786;2022-11-20T05:39:27;99951.59;;;-5.61;87.71
74327;BME280;62745;51.060;13.786;2022-11-20T05:41:52;99945.72;;;-5.92;87.59
74327;BME280;62745;51.060;13.786;2022-11-20T05:44:44;99937.22;;;-6.22;88.79
74327;BME280;62745;51.060;13.786;2022-11-20T05:47:09;99927.78;;;-6.52;90.07
74327;BME280;62745;51.060;13.786;2022-11-20T05:49:34;99923.78;;;-6.43;90.63
74327;BME280;62745;51.060;13.786;2022-11-20T05:52:00;99932.19;;;-5.97;90.17
74327;BME280;62745;51.060;13.786;2022-11-20T05:54:25;99929.19;;;-5.91;88.61
74327;BME280;62745;51.060;13.786;2022-11-20T05:56:50;99940.66;;;-6.08;88.96
74327;BME280;62745;51.060;13.786;2022-11-20T05:59:16;99931.31;;;-5.83;88.64
74327;BME280;62745;51.060;13.786;2022-11-20T06:01:41;99938.97;;;-5.67;87.71
74327;BME280;62745;51.060;13.786;2022-11-20T06:04:06;99927.53;;;-5.65;87.87
74327;BME280;62745;51.060;13.786;2022-11-20T06:06:32;99933.09;;;-4.77;85.58
74327;BME280;62745;51.060;13.786;2022-11-20T06:08:57;99933.09;;;-4.65;82.67
74327;BME280;62745;51.060;13.786;2022-11-20T06:11:24;99938.00;;;-4.86;83.10
74327;BME280;62745;51.060;13.786;2022-11-20T06:13:49;99932.66;;;-5.36;84.41
74327;BME280;62745;51.060;13.786;2022-11-20T06:16:17;99929.22;;;-5.64;85.79
74327;BME280;62745;51.060;13.786;2022-11-20T06:18:43;99934.78;;;-5.97;86.53
74327;BME280;62745;51.060;13.786;2022-11-20T06:21:16;99928.59;;;-6.23;86.96
74327;BME280;62745;51.060;13.786;2022-11-20T06:23:43;99925.91;;;-6.35;88.81
74327;BME280;62745;51.060;13.786;2022-11-20T06:26:11;99924.59;;;-6.57;88.86
74327;BME280;62745;51.060;13.786;2022-11-20T06:28:37;99909.31;;;-6.47;89.20
74327;BME280;62745;51.060;13.786;2022-11-20T06:31:03;99924.44;;;-5.57;88.24
74327;BME280;62745;51.060;13.786;2022-11-20T06:33:29;99926.00;;;-5.55;86.48
74327;BME280;62745;51.060;13.786;2022-11-20T06:35:59;99910.84;;;-5.75;86.99
74327;BME280;62745;51.060;13.786;2022-11-20T06:38:26;99905.47;;;-6.13;87.16
74327;BME280;62745;51.060;13.786;2022-11-20T06:40:51;99908.47;;;-6.19;87.25
74327;BME280;62745;51.060;13.786;2022-11-20T06:43:16;99916.22;;;-6.05;89.44
74327;BME280;62745;51.060;13.786;2022-11-20T06:45:42;99916.84;;;-5.87;88.07
74327;BME280;62745;51.060;13.786;2022-11-20T06:48:08;99921.03;;;-5.72;87.44
74327;BME280;62745;51.060;13.786;2022-11-20T06:50:36;99915.13;;;-5.88;88.11
74327;BME280;62745;51.060;13.786;2022-11-20T06:53:02;99913.78;;;-5.94;87.88
74327;BME280;62745;51.060;13.786;2022-11-20T06:55:28;99906.94;;;-6.09;88.33
74327;BME280;62745;51.060;13.786;2022-11-20T06:57:54;99906.28;;;-5.98;88.64
74327;BME280;62745;51.060;13.786;2022-11-20T07:00:19;99911.91;;;-5.38;87.38
74327;BME280;62745;51.060;13.786;2022-11-20T07:02:44;99889.66;;;-5.29;86.74
74327;BME280;62745;51.060;13.786;2022-11-20T07:05:10;99886.38;;;-4.93;85.59
74327;BME280;62745;51.060;13.786;2022-11-20T07:07:35;99905.66;;;-4.96;85.06
74327;BME280;62745;51.060;13.786;2022-11-20T07:10:00;99913.16;;;-4.91;85.47
74327;BME280;62745;51.060;13.786;2022-11-20T07:12:26;99900.91;;;-4.64;84.14
74327;BME280;62745;51.060;13.786;2022-11-20T07:14:51;99914.81;;;-4.14;82.82
74327;BME280;62745;51.060;13.786;2022-11-20T07:17:16;99908.69;;;-4.26;83.06
74327;BME280;62745;51.060;13.786;2022-11-20T07:19:42;99904.94;;;-4.34;82.91
74327;BME280;62745;51.060;13.786;2022-11-20T07:22:08;99892.22;;;-4.39;83.10
74327;BME280;62745;51.060;13.786;2022-11-20T07:24:33;99901.22;;;-4.68;83.92
74327;BME280;62745;51.060;13.786;2022-11-20T07:26:59;99899.84;;;-4.61;84.27
74327;BME280;62745;51.060;13.786;2022-11-20T07:29:24;99896.50;;;-4.89;84.82
74327;BME280;62745;51.060;13.786;2022-11-20T07:31:49;99895.47;;;-4.86;84.91
74327;BME280;62745;51.060;13.786;2022-11-20T07:34:15;99874.50;;;-5.10;84.95
74327;BME280;62745;51.060;13.786;2022-11-20T07:36:40;99896.00;;;-4.68;85.57
74327;BME280;62745;51.060;13.786;2022-11-20T07:39:05;99898.50;;;-3.92;83.10
74327;BME280;62745;51.060;13.786;2022-11-20T07:41:31;99901.66;;;-4.00;81.57
74327;BME280;62745;51.060;13.786;2022-11-20T07:43:56;99893.97;;;-4.39;83.35
74327;BME280;62745;51.060;13.786;2022-11-20T07:46:21;99898.38;;;-4.40;83.44
74327;BME280;62745;51.060;13.786;2022-11-20T07:49:25;99892.66;;;-4.45;83.41
74327;BME280;62745;51.060;13.786;2022-11-20T07:51:51;99901.28;;;-4.32;83.32
74327;BME280;62745;51.060;13.786;2022-11-20T07:54:19;99894.19;;;-4.17;83.34
74327;BME280;62745;51.060;13.786;2022-11-20T07:56:44;99894.91;;;-4.15;83.35
74327;BME280;62745;51.060;13.786;2022-11-20T07:59:10;99888.47;;;-3.85;83.12
74327;BME280;62745;51.060;13.786;2022-11-20T08:01:37;99891.47;;;-3.79;82.97
74327;BME280;62745;51.060;13.786;2022-11-20T08:04:02;99896.94;;;-3.71;82.63
74327;BME280;62745;51.060;13.786;2022-11-20T08:06:28;99893.34;;;-3.81;82.34
74327;BME280;62745;51.060;13.786;2022-11-20T08:08:53;99887.56;;;-3.73;82.64
74327;BME280;62745;51.060;13.786;2022-11-20T08:11:18;99888.84;;;-3.79;82.58
74327;BME280;62745;51.060;13.786;2022-11-20T08:14:02;99886.81;;;-3.63;82.88
74327;BME280;62745;51.060;13.786;2022-11-20T08:16:37;99894.34;;;-3.47;82.53
74327;BME280;62745;51.060;13.786;2022-11-20T08:19:02;99892.53;;;-3.34;82.08
74327;BME280;62745;51.060;13.786;2022-11-20T08:21:28;99893.50;;;-3.23;81.38
74327;BME280;62745;51.060;13.786;2022-11-20T08:23:53;99879.88;;;-3.16;80.65
74327;BME280;62745;51.060;13.786;2022-11-20T08:26:18;99883.56;;;-3.07;81.32
74327;BME280;62745;51.060;13.786;2022-11-20T08:28:45;99883.50;;;-2.94;81.50
74327;BME280;62745;51.060;13.786;2022-11-20T08:31:11;99877.22;;;-2.92;80.88
74327;BME280;62745;51.060;13.786;2022-11-20T08:33:36;99882.34;;;-2.79;80.88
74327;BME280;62745;51.060;13.786;2022-11-20T08:36:03;99887.25;;;-2.63;80.87
74327;BME280;62745;51.060;13.786;2022-11-20T08:38:29;99882.88;;;-2.52;81.04
74327;BME280;62745;51.060;13.786;2022-11-20T08:40:58;99881.19;;;-2.42;80.39
74327;BME280;62745;51.060;13.786;2022-11-20T08:43:42;99886.06;;;-2.37;79.66
74327;BME280;62745;51.060;13.786;2022-11-20T08:46:08;99881.41;;;-2.00;78.84
74327;BME280;62745;51.060;13.786;2022-11-20T08:48:33;99874.72;;;-1.82;78.05
74327;BME280;62745;51.060;13.786;2022-11-20T08:50:58;99877.41;;;-1.61;77.08
74327;BME280;62745;51.060;13.786;2022-11-20T08:53:24;99880.16;;;-1.30;76.84
74327;BME280;62745;51.060;13.786;2022-11-20T08:55:50;99860.69;;;-1.16;75.99
74327;BME280;62745;51.060;13.786;2022-11-20T08:58:15;99858.50;;;-1.11;76.67
74327;BME280;62745;51.060;13.786;2022-11-20T09:00:40;99856.31;;;-0.85;76.27
74327;BME280;62745;51.060;13.786;2022-11-20T09:03:06;99849.91;;;-0.72;76.21
74327;BME280;62745;51.060;13.786;2022-11-20T09:05:31;99847.91;;;-0.58;75.71
74327;BME280;62745;51.060;13.786;2022-11-20T09:07:57;99841.34;;;-0.43;74.61
74327;BME280;62745;51.060;13.786;2022-11-20T09:10:23;99835.53;;;-0.07;74.74
74327;BME280;62745;51.060;13.786;2022-11-20T09:12:48;99834.59;;;0.04;74.61
74327;BME280;62745;51.060;13.786;2022-11-20T09:15:14;99834.78;;;0.51;72.74
74327;BME280;62745;51.060;13.786;2022-11-20T09:17:39;99830.63;;;0.68;71.17
74327;BME280;62745;51.060;13.786;2022-11-20T09:20:05;99832.28;;;0.78;70.28
74327;BME280;62745;51.060;13.786;2022-11-20T09:22:30;99836.72;;;0.87;69.91
74327;BME280;62745;51.060;13.786;2022-11-20T09:24:55;99837.09;;;1.02;69.52
74327;BME280;62745;51.060;13.786;2022-11-20T09:27:20;99826.25;;;1.25;67.55
74327;BME280;62745;51.060;13.786;2022-11-20T09:29:46;99825.72;;;1.21;67.08
74327;BME280;62745;51.060;13.786;2022-11-20T09:32:12;99825.72;;;1.58;67.40
74327;BME280;62745;51.060;13.786;2022-11-20T09:34:37;99827.72;;;1.74;65.85
74327;BME280;62745;51.060;13.786;2022-11-20T09:37:02;99836.56;;;1.45;65.26
74327;BME280;62745;51.060;13.786;2022-11-20T09:39:27;99826.19;;;1.34;65.22
74327;BME280;62745;51.060;13.786;2022-11-20T09:42:09;99824.06;;;1.85;64.54
74327;BME280;62745;51.060;13.786;2022-11-20T09:47:33;99824.16;;;1.93;61.47
74327;BME280;62745;51.060;13.786;2022-11-20T09:50:20;99837.91;;;2.50;60.33
74327;BME280;62745;51.060;13.786;2022-11-20T09:55:48;99828.06;;;2.52;58.28
74327;BME280;62745;51.060;13.786;2022-11-20T09:58:27;99823.50;;;2.97;58.61
74327;BME280;62745;51.060;13.786;2022-11-20T10:00:56;99820.19;;;2.95;57.18
74327;BME280;62745;51.060;13.786;2022-11-20T10:06:28;99809.53;;;3.05;57.76
74327;BME280;62745;51.060;13.786;2022-11-20T10:20:01;99807.66;;;2.36;60.08
74327;BME280;62745;51.060;13.786;2022-11-20T10:22:54;99797.69;;;3.09;60.03
74327;BME280;62745;51.060;13.786;2022-11-20T10:28:14;99789.13;;;2.46;56.90
74327;BME280;62745;51.060;13.786;2022-11-20T10:30:42;99782.72;;;3.18;56.66
74327;BME280;62745;51.060;13.786;2022-11-20T10:33:21;99788.78;;;3.36;55.47
74327;BME280;62745;51.060;13.786;2022-11-20T10:35:55;99777.25;;;3.37;54.60
74327;BME280;62745;51.060;13.786;2022-11-20T10:38:31;99776.50;;;3.27;53.05
74327;BME280;62745;51.060;13.786;2022-11-20T10:41:05;99782.28;;;3.56;54.92
74327;BME280;62745;51.060;13.786;2022-11-20T10:43:53;99791.66;;;3.93;53.90
74327;BME280;62745;51.060;13.786;2022-11-20T10:46:22;99788.28;;;3.75;54.46
74327;BME280;62745;51.060;13.786;2022-11-20T10:48:49;99794.75;;;3.46;55.32
74327;BME280;62745;51.060;13.786;2022-11-20T10:54:36;99784.72;;;3.92;55.05
74327;BME280;62745;51.060;13.786;2022-11-20T10:59:58;99786.94;;;4.21;54.92
74327;BME280;62745;51.060;13.786;2022-11-20T11:02:35;99774.06;;;4.50;53.30
74327;BME280;62745;51.060;13.786;2022-11-20T11:05:10;99768.59;;;4.68;54.16
74327;BME280;62745;51.060;13.786;2022-11-20T11:07:39;99775.06;;;4.41;53.19
74327;BME280;62745;51.060;13.786;2022-11-20T11:10:22;99773.31;;;3.91;53.71
74327;BME280;62745;51.060;13.786;2022-11-20T11:12:49;99770.78;;;3.82;54.30
74327;BME280;62745;51.060;13.786;2022-11-20T11:15:26;99768.16;;;3.40;55.94
74327;BME280;62745;51.060;13.786;2022-11-20T11:17:51;99756.25;;;3.78;55.84
74327;BME280;62745;51.060;13.786;2022-11-20T11:20:19;99767.38;;;3.89;56.18
74327;BME280;62745;51.060;13.786;2022-11-20T11:22:49;99758.63;;;3.97;55.15
74327;BME280;62745;51.060;13.786;2022-11-20T11:25:30;99760.78;;;4.02;55.54
74327;BME280;62745;51.060;13.786;2022-11-20T11:27:58;99748.25;;;4.36;55.06
74327;BME280;62745;51.060;13.786;2022-11-20T11:30:25;99748.28;;;3.61;56.83
74327;BME280;62745;51.060;13.786;2022-11-20T11:33:05;99743.25;;;4.01;57.00
74327;BME280;62745;51.060;13.786;2022-11-20T11:35:31;99736.03;;;3.52;57.19
74327;BME280;62745;51.060;13.786;2022-11-20T11:38:06;99738.25;;;2.97;59.68
74327;BME280;62745;51.060;13.786;2022-11-20T11:40:36;99742.53;;;3.24;59.62
74327;BME280;62745;51.060;13.786;2022-11-20T11:43:15;99733.59;;;2.47;61.07
74327;BME280;62745;51.060;13.786;2022-11-20T11:46:02;99727.75;;;1.82;64.42
74327;BME280;62745;51.060;13.786;2022-11-20T11:48:27;99718.56;;;1.68;65.40
74327;BME280;62745;51.060;13.786;2022-11-20T11:50:52;99721.63;;;1.64;66.21
74327;BME280;62745;51.060;13.786;2022-11-20T11:53:21;99718.09;;;1.55;66.92
74327;BME280;62745;51.060;13.786;2022-11-20T11:55:50;99719.34;;;1.51;68.56
74327;BME280;62745;51.060;13.786;2022-11-20T11:58:44;99713.16;;;1.42;68.70
74327;BME280;62745;51.060;13.786;2022-11-20T12:01:43;99708.47;;;1.64;68.42
74327;BME280;62745;51.060;13.786;2022-11-20T12:07:20;99689.00;;;2.80;64.97
74327;BME280;62745;51.060;13.786;2022-11-20T12:09:51;99678.97;;;3.17;63.74
74327;BME280;62745;51.060;13.786;2022-11-20T12:12:27;99691.91;;;2.94;64.90
74327;BME280;62745;51.060;13.786;2022-11-20T12:14:54;99686.47;;;2.96;64.46
74327;BME280;62745;51.060;13.786;2022-11-20T12:17:21;99686.31;;;2.46;65.25
74327;BME280;62745;51.060;13.786;2022-11-20T12:19:46;99687.66;;;2.50;65.92
74327;BME280;62745;51.060;13.786;2022-11-20T12:22:52;99684.19;;;2.23;67.62
74327;BME280;62745;51.060;13.786;2022-11-20T12:25:24;99667.03;;;1.84;68.67
74327;BME280;62745;51.060;13.786;2022-11-20T12:30:24;99700.63;;;1.54;69.45
74327;BME280;62745;51.060;13.786;2022-11-20T12:33:20;99707.06;;;1.42;70.80
74327;BME280;62745;51.060;13.786;2022-11-20T12:45:14;99704.28;;;0.79;74.16
74327;BME280;62745;51.060;13.786;2022-11-20T12:52:57;99697.50;;;1.13;73.49
74327;BME280;62745;51.060;13.786;2022-11-20T12:58:12;99693.63;;;0.80;74.62
74327;BME280;62745;51.060;13.786;2022-11-20T13:00:53;99699.75;;;0.71;74.95
74327;BME280;62745;51.060;13.786;2022-11-20T13:03:38;99690.75;;;0.64;76.38
74327;BME280;62745;51.060;13.786;2022-11-20T13:06:17;99696.84;;;0.74;76.44
74327;BME280;62745;51.060;13.786;2022-11-20T13:08:52;99689.94;;;0.73;76.03
74327;BME280;62745;51.060;13.786;2022-11-20T13:15:07;99694.41;;;0.53;77.72
74327;BME280;62745;51.060;13.786;2022-11-20T13:17:25;99687.44;;;0.62;77.70
74327;BME280;62745;51.060;13.786;2022-11-20T13:19:55;99686.34;;;0.65;77.96
74327;BME280;62745;51.060;13.786;2022-11-20T13:22:43;99688.13;;;0.64;77.35
74327;BME280;62745;51.060;13.786;2022-11-20T13:25:10;99676.94;;;0.62;77.39
74327;BME280;62745;51.060;13.786;2022-11-20T13:27:47;99674.59;;;0.69;76.95
74327;BME280;62745;51.060;13.786;2022-11-20T13:30:16;99665.59;;;0.71;77.99
74327;BME280;62745;51.060;13.786;2022-11-20T13:32:56;99664.00;;;0.51;77.89
74327;BME280;62745;51.060;13.786;2022-11-20T13:35:26;99660.63;;;0.58;77.68
74327;BME280;62745;51.060;13.786;2022-11-20T13:38:13;99668.53;;;0.58;77.51
74327;BME280;62745;51.060;13.786;2022-11-20T13:40:58;99666.56;;;0.60;76.38
74327;BME280;62745;51.060;13.786;2022-11-20T13:43:40;99664.81;;;0.51;77.51
74327;BME280;62745;51.060;13.786;2022-11-20T13:46:08;99651.41;;;0.45;77.23
74327;BME280;62745;51.060;13.786;2022-11-20T13:48:39;99657.63;;;0.44;78.19
74327;BME280;62745;51.060;13.786;2022-11-20T13:54:50;99664.69;;;0.43;77.56
74327;BME280;62745;51.060;13.786;2022-11-20T13:57:22;99670.38;;;0.39;78.23
74327;BME280;62745;51.060;13.786;2022-11-20T13:59:59;99671.75;;;0.43;77.73
74327;BME280;62745;51.060;13.786;2022-11-20T14:02:27;99666.09;;;0.38;77.30
74327;BME280;62745;51.060;13.786;2022-11-20T14:04:57;99675.91;;;0.36;78.17
74327;BME280;62745;51.060;13.786;2022-11-20T14:07:31;99670.22;;;0.40;78.12